createdAt,value
2018-06-30T00:00:56.102Z,0.00
2018-06-30T00:01:56.167Z,0.00
2018-06-30T00:02:56.076Z,0.00
2018-06-30T00:03:56.066Z,0.00
2018-06-30T00:04:56.056Z,0.00
2018-06-30T00:05:56.046Z,0.00
2018-06-30T00:06:56.035Z,0.00
2018-06-30T00:07:56.099Z,0.00
2018-06-30T00:08:56.029Z,0.00
2018-06-30T00:09:56.002Z,0.00
2018-06-30T00:10:55.996Z,0.00
2018-06-30T00:11:55.984Z,0.00
2018-06-30T00:12:56.036Z,0.00
2018-06-30T00:13:55.959Z,0.00
2018-06-30T00:14:55.951Z,0.00
2018-06-30T00:15:55.937Z,0.00
2018-06-30T00:16:55.935Z,0.00
2018-06-30T00:17:55.982Z,0.00
2018-06-30T00:18:55.904Z,0.00
2018-06-30T00:19:55.892Z,0.00
2018-06-30T00:20:55.909Z,0.00
2018-06-30T00:21:55.868Z,0.00
2018-06-30T00:22:55.931Z,0.00
2018-06-30T00:23:55.851Z,0.00
2018-06-30T00:24:55.842Z,0.00
2018-06-30T00:25:55.828Z,0.00
2018-06-30T00:26:55.825Z,0.00
2018-06-30T00:27:55.874Z,0.00
2018-06-30T00:28:55.796Z,0.00
2018-06-30T00:29:55.773Z,0.00
2018-06-30T00:30:55.773Z,0.00
2018-06-30T00:31:55.767Z,0.00
2018-06-30T00:32:55.823Z,0.00
2018-06-30T00:33:55.738Z,0.00
2018-06-30T00:34:55.735Z,0.00
2018-06-30T00:35:55.734Z,0.00
2018-06-30T00:36:55.709Z,0.00
2018-06-30T00:37:55.765Z,0.00
2018-06-30T00:38:55.689Z,0.00
2018-06-30T00:39:55.675Z,0.00
2018-06-30T00:40:55.671Z,0.00
2018-06-30T00:41:55.665Z,0.00
2018-06-30T00:42:55.706Z,0.00
2018-06-30T00:43:55.638Z,0.00
2018-06-30T00:44:55.624Z,0.00
2018-06-30T00:45:55.611Z,0.00
2018-06-30T00:46:55.605Z,0.00
2018-06-30T00:47:55.664Z,0.00
2018-06-30T00:48:55.587Z,0.00
2018-06-30T00:49:55.573Z,0.00
2018-06-30T00:50:55.565Z,0.00
2018-06-30T00:51:55.564Z,0.00
2018-06-30T00:52:55.605Z,0.00
2018-06-30T00:53:55.531Z,0.00
2018-06-30T00:54:55.523Z,0.00
2018-06-30T00:55:55.506Z,0.00
2018-06-30T00:56:55.490Z,0.00
2018-06-30T00:57:55.554Z,0.00
2018-06-30T00:58:55.485Z,0.00
2018-06-30T00:59:55.464Z,0.00
2018-06-30T01:00:55.465Z,0.00
2018-06-30T01:01:55.442Z,0.00
2018-06-30T01:02:55.495Z,0.00
2018-06-30T01:03:55.423Z,0.00
2018-06-30T01:04:55.415Z,0.00
2018-06-30T01:05:55.395Z,0.00
2018-06-30T01:06:55.388Z,0.00
2018-06-30T01:07:55.444Z,0.00
2018-06-30T01:08:55.368Z,0.00
2018-06-30T01:09:55.364Z,0.00
2018-06-30T01:10:55.345Z,0.00
2018-06-30T01:11:55.331Z,0.00
2018-06-30T01:12:55.378Z,0.00
2018-06-30T01:13:55.306Z,0.00
2018-06-30T01:14:55.302Z,0.00
2018-06-30T01:15:55.298Z,0.00
2018-06-30T01:16:55.269Z,0.00
2018-06-30T01:17:55.338Z,0.00
2018-06-30T01:18:55.259Z,0.00
2018-06-30T01:19:55.243Z,0.00
2018-06-30T01:20:55.235Z,0.00
2018-06-30T01:21:55.233Z,0.00
2018-06-30T01:22:55.284Z,0.00
2018-06-30T01:23:55.200Z,0.00
2018-06-30T01:24:55.185Z,0.00
2018-06-30T01:25:55.179Z,0.00
2018-06-30T01:26:55.169Z,0.00
2018-06-30T01:27:55.229Z,0.00
2018-06-30T01:28:55.144Z,0.00
2018-06-30T01:29:55.143Z,0.00
2018-06-30T01:30:55.118Z,0.00
2018-06-30T01:31:55.128Z,0.00
2018-06-30T01:32:55.175Z,0.00
2018-06-30T01:33:55.091Z,0.00
2018-06-30T01:34:55.081Z,0.00
2018-06-30T01:35:55.072Z,0.00
2018-06-30T01:36:55.062Z,0.00
2018-06-30T01:37:55.114Z,0.00
2018-06-30T01:38:55.040Z,0.00
2018-06-30T01:39:55.034Z,0.00
2018-06-30T01:40:55.015Z,0.00
2018-06-30T01:41:55.001Z,0.00
2018-06-30T01:42:55.060Z,0.00
2018-06-30T01:43:54.984Z,0.00
2018-06-30T01:44:54.976Z,0.00
2018-06-30T01:45:54.958Z,0.00
2018-06-30T01:46:54.940Z,0.00
2018-06-30T01:47:55.009Z,0.00
2018-06-30T01:48:54.926Z,0.00
2018-06-30T01:49:54.916Z,0.00
2018-06-30T01:50:54.905Z,0.00
2018-06-30T01:51:54.891Z,0.00
2018-06-30T01:52:54.883Z,0.00
2018-06-30T01:53:54.942Z,0.00
2018-06-30T01:54:54.861Z,0.00
2018-06-30T01:55:54.857Z,0.00
2018-06-30T01:56:54.839Z,0.00
2018-06-30T01:57:54.828Z,0.00
2018-06-30T01:58:54.876Z,0.00
2018-06-30T01:59:54.815Z,0.00
2018-06-30T02:00:54.793Z,0.00
2018-06-30T02:01:54.784Z,0.00
2018-06-30T02:02:54.774Z,0.00
2018-06-30T02:03:54.834Z,0.00
2018-06-30T02:04:54.747Z,0.00
2018-06-30T02:05:54.741Z,0.00
2018-06-30T02:06:54.727Z,0.00
2018-06-30T02:07:54.724Z,0.00
2018-06-30T02:08:54.782Z,0.00
2018-06-30T02:09:54.695Z,0.00
2018-06-30T02:10:54.683Z,0.00
2018-06-30T02:11:54.675Z,0.00
2018-06-30T02:12:54.665Z,0.00
2018-06-30T02:13:54.714Z,0.00
2018-06-30T02:14:54.644Z,0.00
2018-06-30T02:15:54.631Z,0.00
2018-06-30T02:16:54.740Z,0.00
2018-06-30T02:17:54.609Z,0.00
2018-06-30T02:18:54.667Z,0.00
2018-06-30T02:19:54.593Z,0.00
2018-06-30T02:20:54.576Z,0.00
2018-06-30T02:21:54.570Z,0.00
2018-06-30T02:22:54.552Z,0.00
2018-06-30T02:23:54.608Z,0.00
2018-06-30T02:24:54.530Z,0.00
2018-06-30T02:25:54.517Z,0.00
2018-06-30T02:26:54.507Z,0.00
2018-06-30T02:27:54.501Z,0.00
2018-06-30T02:28:54.553Z,0.00
2018-06-30T02:29:54.479Z,0.00
2018-06-30T02:30:54.468Z,0.00
2018-06-30T02:31:54.452Z,0.00
2018-06-30T02:32:54.443Z,0.00
2018-06-30T02:33:54.499Z,0.00
2018-06-30T02:34:54.423Z,0.00
2018-06-30T02:35:54.409Z,0.00
2018-06-30T02:36:54.402Z,0.00
2018-06-30T02:37:54.388Z,0.00
2018-06-30T02:38:54.503Z,0.00
2018-06-30T02:39:54.364Z,0.00
2018-06-30T02:40:54.359Z,0.00
2018-06-30T02:41:54.348Z,0.00
2018-06-30T02:42:54.344Z,0.00
2018-06-30T02:43:54.388Z,0.00
2018-06-30T02:44:54.317Z,0.00
2018-06-30T02:45:54.363Z,0.00
2018-06-30T02:46:54.294Z,0.00
2018-06-30T02:47:54.282Z,0.00
2018-06-30T02:48:54.339Z,0.00
2018-06-30T02:49:54.262Z,0.00
2018-06-30T02:50:54.251Z,0.00
2018-06-30T02:51:54.236Z,0.00
2018-06-30T02:52:54.230Z,0.00
2018-06-30T02:53:54.288Z,0.00
2018-06-30T02:54:54.206Z,0.00
2018-06-30T02:55:54.196Z,0.00
2018-06-30T02:56:54.185Z,0.00
2018-06-30T02:57:54.176Z,0.00
2018-06-30T02:58:54.229Z,0.00
2018-06-30T02:59:54.151Z,0.00
2018-06-30T03:00:54.138Z,0.00
2018-06-30T03:01:54.134Z,0.00
2018-06-30T03:02:54.122Z,0.00
2018-06-30T03:03:54.185Z,0.00
2018-06-30T03:04:54.095Z,0.00
2018-06-30T03:05:54.090Z,0.00
2018-06-30T03:06:54.090Z,0.00
2018-06-30T03:07:54.069Z,0.00
2018-06-30T03:08:54.129Z,0.00
2018-06-30T03:09:54.048Z,0.00
2018-06-30T03:10:54.034Z,0.00
2018-06-30T03:11:54.022Z,0.00
2018-06-30T03:12:54.015Z,0.00
2018-06-30T03:13:54.001Z,0.00
2018-06-30T03:14:54.051Z,0.00
2018-06-30T03:15:53.982Z,0.00
2018-06-30T03:16:53.963Z,0.00
2018-06-30T03:17:53.963Z,0.00
2018-06-30T03:18:53.947Z,0.00
2018-06-30T03:19:54.009Z,0.00
2018-06-30T03:20:53.925Z,0.00
2018-06-30T03:21:53.915Z,0.00
2018-06-30T03:22:53.905Z,0.00
2018-06-30T03:23:53.882Z,0.00
2018-06-30T03:24:53.959Z,0.00
2018-06-30T03:25:53.874Z,0.00
2018-06-30T03:26:53.866Z,0.00
2018-06-30T03:27:53.854Z,0.00
2018-06-30T03:28:53.835Z,5.62
2018-06-30T03:29:53.882Z,5.62
2018-06-30T03:30:53.819Z,5.62
2018-06-30T03:31:53.814Z,5.62
2018-06-30T03:32:53.800Z,5.62
2018-06-30T03:33:53.782Z,5.62
2018-06-30T03:34:53.842Z,5.62
2018-06-30T03:35:53.759Z,5.62
2018-06-30T03:36:53.757Z,5.62
2018-06-30T03:37:53.741Z,5.62
2018-06-30T03:38:53.738Z,5.62
2018-06-30T03:39:53.780Z,5.62
2018-06-30T03:40:53.710Z,5.62
2018-06-30T03:41:53.696Z,5.62
2018-06-30T03:42:53.687Z,11.25
2018-06-30T03:43:53.674Z,11.25
2018-06-30T03:44:53.728Z,11.25
2018-06-30T03:45:53.654Z,11.25
2018-06-30T03:46:53.643Z,11.25
2018-06-30T03:47:53.632Z,11.25
2018-06-30T03:48:53.620Z,11.25
2018-06-30T03:49:53.677Z,11.25
2018-06-30T03:50:53.642Z,11.25
2018-06-30T03:51:53.587Z,11.25
2018-06-30T03:52:53.581Z,11.25
2018-06-30T03:53:53.569Z,11.25
2018-06-30T03:54:53.622Z,16.88
2018-06-30T03:55:53.543Z,16.88
2018-06-30T03:56:53.534Z,16.88
2018-06-30T03:57:53.522Z,16.88
2018-06-30T03:58:53.513Z,16.88
2018-06-30T03:59:53.569Z,16.88
2018-06-30T04:00:53.489Z,16.88
2018-06-30T04:01:53.479Z,16.88
2018-06-30T04:02:53.463Z,16.88
2018-06-30T04:03:53.456Z,16.88
2018-06-30T04:04:53.514Z,16.88
2018-06-30T04:05:53.433Z,22.50
2018-06-30T04:06:53.423Z,22.50
2018-06-30T04:07:53.413Z,22.50
2018-06-30T04:08:53.399Z,22.50
2018-06-30T04:09:53.456Z,22.50
2018-06-30T04:10:53.380Z,22.50
2018-06-30T04:11:53.366Z,22.50
2018-06-30T04:12:53.360Z,22.50
2018-06-30T04:13:53.357Z,22.50
2018-06-30T04:14:53.402Z,22.50
2018-06-30T04:15:53.329Z,22.50
2018-06-30T04:16:53.322Z,28.12
2018-06-30T04:17:53.303Z,28.12
2018-06-30T04:18:53.303Z,28.12
2018-06-30T04:19:53.361Z,28.12
2018-06-30T04:20:53.270Z,28.12
2018-06-30T04:21:53.262Z,28.12
2018-06-30T04:22:53.254Z,28.12
2018-06-30T04:23:53.241Z,28.12
2018-06-30T04:24:53.299Z,28.12
2018-06-30T04:25:53.216Z,28.12
2018-06-30T04:26:53.212Z,28.12
2018-06-30T04:27:53.200Z,28.12
2018-06-30T04:28:53.186Z,28.12
2018-06-30T04:29:53.259Z,33.75
2018-06-30T04:30:53.172Z,33.75
2018-06-30T04:31:53.155Z,33.75
2018-06-30T04:32:53.145Z,33.75
2018-06-30T04:33:53.139Z,33.75
2018-06-30T04:34:53.192Z,33.75
2018-06-30T04:35:53.114Z,33.75
2018-06-30T04:36:53.111Z,33.75
2018-06-30T04:37:53.086Z,33.75
2018-06-30T04:38:53.084Z,33.75
2018-06-30T04:39:53.139Z,33.75
2018-06-30T04:40:53.057Z,33.75
2018-06-30T04:41:53.049Z,39.38
2018-06-30T04:42:53.039Z,39.38
2018-06-30T04:43:53.024Z,39.38
2018-06-30T04:44:53.088Z,39.38
2018-06-30T04:45:53.008Z,39.38
2018-06-30T04:46:52.992Z,39.38
2018-06-30T04:47:52.987Z,39.38
2018-06-30T04:48:52.972Z,39.38
2018-06-30T04:49:53.039Z,39.38
2018-06-30T04:50:53.002Z,39.38
2018-06-30T04:51:52.940Z,39.38
2018-06-30T04:52:52.928Z,39.38
2018-06-30T04:53:52.924Z,39.38
2018-06-30T04:54:52.906Z,39.38
2018-06-30T04:55:52.963Z,39.38
2018-06-30T04:56:52.885Z,39.38
2018-06-30T04:57:52.881Z,39.38
2018-06-30T04:58:52.862Z,39.38
2018-06-30T04:59:52.850Z,39.38
2018-06-30T05:00:52.910Z,39.38
2018-06-30T05:01:52.829Z,45.00
2018-06-30T05:02:52.820Z,45.00
2018-06-30T05:03:52.816Z,45.00
2018-06-30T05:04:52.804Z,45.00
2018-06-30T05:05:52.851Z,45.00
2018-06-30T05:06:52.780Z,45.00
2018-06-30T05:07:52.766Z,45.00
2018-06-30T05:08:52.761Z,45.00
2018-06-30T05:09:52.744Z,45.00
2018-06-30T05:10:52.798Z,45.00
2018-06-30T05:11:52.727Z,45.00
2018-06-30T05:12:52.760Z,45.00
2018-06-30T05:13:52.701Z,45.00
2018-06-30T05:14:52.695Z,45.00
2018-06-30T05:15:52.749Z,45.00
2018-06-30T05:16:52.664Z,45.00
2018-06-30T05:17:52.657Z,45.00
2018-06-30T05:18:52.647Z,45.00
2018-06-30T05:19:52.636Z,45.00
2018-06-30T05:20:52.695Z,50.62
2018-06-30T05:21:52.609Z,50.62
2018-06-30T05:22:52.600Z,50.62
2018-06-30T05:23:52.590Z,50.62
2018-06-30T05:24:52.578Z,50.62
2018-06-30T05:25:52.656Z,50.62
2018-06-30T05:26:52.564Z,50.62
2018-06-30T05:27:52.549Z,50.62
2018-06-30T05:28:52.533Z,50.62
2018-06-30T05:29:52.525Z,50.62
2018-06-30T05:30:52.586Z,50.62
2018-06-30T05:31:52.510Z,50.62
2018-06-30T05:32:52.496Z,50.62
2018-06-30T05:33:52.479Z,50.62
2018-06-30T05:34:52.469Z,50.62
2018-06-30T05:35:52.531Z,50.62
2018-06-30T05:36:52.449Z,50.62
2018-06-30T05:37:52.443Z,50.62
2018-06-30T05:38:52.432Z,50.62
2018-06-30T05:39:52.414Z,50.62
2018-06-30T05:40:52.478Z,50.62
2018-06-30T05:41:52.400Z,50.62
2018-06-30T05:42:52.388Z,50.62
2018-06-30T05:43:52.384Z,50.62
2018-06-30T05:44:52.367Z,56.25
2018-06-30T05:45:52.418Z,56.25
2018-06-30T05:46:52.343Z,56.25
2018-06-30T05:47:52.328Z,56.25
2018-06-30T05:48:52.324Z,56.25
2018-06-30T05:49:52.328Z,56.25
2018-06-30T05:50:52.376Z,56.25
2018-06-30T05:51:52.293Z,56.25
2018-06-30T05:52:52.285Z,50.62
2018-06-30T05:53:52.279Z,50.62
2018-06-30T05:54:52.262Z,50.62
2018-06-30T05:55:52.312Z,50.62
2018-06-30T05:56:52.232Z,50.62
2018-06-30T05:57:52.224Z,50.62
2018-06-30T05:58:52.211Z,50.62
2018-06-30T05:59:52.211Z,50.62
2018-06-30T06:00:52.265Z,50.62
2018-06-30T06:01:52.178Z,50.62
2018-06-30T06:02:52.171Z,50.62
2018-06-30T06:03:52.156Z,50.62
2018-06-30T06:04:52.149Z,50.62
2018-06-30T06:05:52.202Z,50.62
2018-06-30T06:06:52.129Z,50.62
2018-06-30T06:07:52.113Z,50.62
2018-06-30T06:08:52.106Z,50.62
2018-06-30T06:09:52.196Z,50.62
2018-06-30T06:10:52.151Z,50.62
2018-06-30T06:11:52.071Z,56.25
2018-06-30T06:12:52.063Z,56.25
2018-06-30T06:13:52.052Z,56.25
2018-06-30T06:14:52.040Z,56.25
2018-06-30T06:15:52.116Z,56.25
2018-06-30T06:16:52.012Z,56.25
2018-06-30T06:17:52.009Z,56.25
2018-06-30T06:18:52.025Z,56.25
2018-06-30T06:19:51.979Z,56.25
2018-06-30T06:20:52.041Z,56.25
2018-06-30T06:21:51.947Z,56.25
2018-06-30T06:22:51.951Z,56.25
2018-06-30T06:23:51.946Z,56.25
2018-06-30T06:24:51.928Z,56.25
2018-06-30T06:25:52.006Z,56.25
2018-06-30T06:26:51.905Z,56.25
2018-06-30T06:27:51.945Z,56.25
2018-06-30T06:28:51.887Z,56.25
2018-06-30T06:29:51.887Z,56.25
2018-06-30T06:30:51.977Z,56.25
2018-06-30T06:31:51.852Z,56.25
2018-06-30T06:32:51.888Z,56.25
2018-06-30T06:33:51.832Z,56.25
2018-06-30T06:34:51.820Z,56.25
2018-06-30T06:35:51.809Z,56.25
2018-06-30T06:36:51.877Z,61.88
2018-06-30T06:37:51.789Z,61.88
2018-06-30T06:38:51.772Z,61.88
2018-06-30T06:39:51.763Z,61.88
2018-06-30T06:40:51.750Z,61.88
2018-06-30T06:41:51.843Z,61.88
2018-06-30T06:42:51.731Z,61.88
2018-06-30T06:43:51.721Z,61.88
2018-06-30T06:44:51.711Z,61.88
2018-06-30T06:45:51.699Z,61.88
2018-06-30T06:46:51.745Z,61.88
2018-06-30T06:47:51.674Z,61.88
2018-06-30T06:48:51.670Z,61.88
2018-06-30T06:49:51.652Z,61.88
2018-06-30T06:50:51.641Z,61.88
2018-06-30T06:51:51.709Z,61.88
2018-06-30T06:52:51.617Z,61.88
2018-06-30T06:53:51.612Z,61.88
2018-06-30T06:54:51.600Z,61.88
2018-06-30T06:55:51.608Z,61.88
2018-06-30T06:56:51.692Z,61.88
2018-06-30T06:57:51.574Z,61.88
2018-06-30T06:58:51.560Z,61.88
2018-06-30T06:59:51.540Z,61.88
2018-06-30T07:00:51.535Z,61.88
2018-06-30T07:01:51.601Z,67.50
2018-06-30T07:02:51.548Z,61.88
2018-06-30T07:03:51.513Z,61.88
2018-06-30T07:04:51.495Z,61.88
2018-06-30T07:05:51.478Z,61.88
2018-06-30T07:06:51.546Z,61.88
2018-06-30T07:07:51.462Z,61.88
2018-06-30T07:08:51.499Z,61.88
2018-06-30T07:09:51.447Z,61.88
2018-06-30T07:10:51.428Z,61.88
2018-06-30T07:11:51.532Z,61.88
2018-06-30T07:12:51.405Z,61.88
2018-06-30T07:13:51.395Z,61.88
2018-06-30T07:14:51.385Z,67.50
2018-06-30T07:15:51.370Z,67.50
2018-06-30T07:16:51.419Z,67.50
2018-06-30T07:17:51.348Z,67.50
2018-06-30T07:18:51.340Z,67.50
2018-06-30T07:19:51.328Z,67.50
2018-06-30T07:20:51.324Z,67.50
2018-06-30T07:21:51.510Z,67.50
2018-06-30T07:22:51.305Z,67.50
2018-06-30T07:23:51.285Z,67.50
2018-06-30T07:24:51.277Z,67.50
2018-06-30T07:25:51.294Z,67.50
2018-06-30T07:26:51.334Z,67.50
2018-06-30T07:27:51.251Z,67.50
2018-06-30T07:28:51.233Z,67.50
2018-06-30T07:29:51.225Z,67.50
2018-06-30T07:30:51.218Z,67.50
2018-06-30T07:31:51.288Z,67.50
2018-06-30T07:32:51.194Z,67.50
2018-06-30T07:33:51.186Z,67.50
2018-06-30T07:34:51.212Z,67.50
2018-06-30T07:35:51.161Z,67.50
2018-06-30T07:36:51.209Z,67.50
2018-06-30T07:37:51.145Z,67.50
2018-06-30T07:38:51.135Z,67.50
2018-06-30T07:39:51.118Z,67.50
2018-06-30T07:40:51.109Z,67.50
2018-06-30T07:41:51.393Z,67.50
2018-06-30T07:42:51.074Z,67.50
2018-06-30T07:43:51.070Z,67.50
2018-06-30T07:44:51.070Z,67.50
2018-06-30T07:45:59.915Z,67.50
2018-06-30T07:46:51.213Z,67.50
2018-06-30T07:47:51.216Z,67.50
2018-06-30T07:48:51.016Z,67.50
2018-06-30T07:49:51.013Z,67.50
2018-06-30T07:50:51.094Z,67.50
2018-06-30T07:53:18.455Z,67.50
2018-06-30T07:54:18.417Z,67.50
2018-06-30T07:55:18.346Z,67.50
2018-06-30T07:56:19.205Z,67.50
2018-06-30T07:57:18.348Z,67.50
2018-06-30T07:58:18.226Z,67.50
2018-06-30T07:59:18.218Z,67.50
2018-06-30T08:00:18.214Z,67.50
2018-06-30T08:01:18.200Z,67.50
2018-06-30T08:02:18.291Z,73.12
2018-06-30T08:03:18.171Z,73.12
2018-06-30T08:04:18.161Z,73.12
2018-06-30T08:05:18.152Z,73.12
2018-06-30T08:06:18.142Z,73.12
2018-06-30T08:07:18.250Z,73.12
2018-06-30T08:08:18.125Z,73.12
2018-06-30T08:09:28.962Z,73.12
2018-06-30T08:10:18.242Z,73.12
2018-06-30T08:11:18.162Z,73.12
2018-06-30T08:12:18.242Z,73.12
2018-06-30T08:13:18.115Z,73.12
2018-06-30T08:14:18.056Z,73.12
2018-06-30T08:15:18.042Z,73.12
2018-06-30T08:16:18.043Z,73.12
2018-06-30T08:17:19.936Z,73.12
2018-06-30T08:18:18.019Z,73.12
2018-06-30T08:19:18.056Z,73.12
2018-06-30T08:21:42.302Z,73.12
2018-06-30T08:22:42.206Z,73.12
2018-06-30T08:23:42.195Z,73.12
2018-06-30T08:24:42.173Z,73.12
2018-06-30T08:25:42.038Z,73.12
2018-06-30T08:26:42.026Z,73.12
2018-06-30T08:27:42.117Z,73.12
2018-06-30T08:28:42.001Z,73.12
2018-06-30T08:29:41.985Z,73.12
2018-06-30T08:30:41.980Z,73.12
2018-06-30T08:31:44.008Z,73.12
2018-06-30T08:32:42.029Z,73.12
2018-06-30T08:33:41.941Z,73.12
2018-06-30T08:34:42.073Z,73.12
2018-06-30T08:35:41.919Z,73.12
2018-06-30T08:36:41.911Z,73.12
2018-06-30T08:37:44.819Z,73.12
2018-06-30T08:38:45.832Z,73.12
2018-06-30T08:39:41.881Z,73.12
2018-06-30T08:42:34.611Z,73.12
2018-06-30T08:43:34.598Z,73.12
2018-06-30T08:44:34.628Z,73.12
2018-06-30T08:45:34.527Z,73.12
2018-06-30T08:46:34.418Z,73.12
2018-06-30T08:47:34.493Z,73.12
2018-06-30T08:49:50.852Z,73.12
2018-06-30T08:50:50.846Z,73.12
2018-06-30T08:51:50.793Z,73.12
2018-06-30T08:52:50.856Z,73.12
2018-06-30T08:53:50.712Z,73.12
2018-06-30T08:54:50.653Z,73.12
2018-06-30T08:55:50.647Z,73.12
2018-06-30T08:56:50.954Z,78.75
2018-06-30T08:57:50.692Z,84.38
2018-06-30T08:58:50.606Z,78.75
2018-06-30T08:59:52.437Z,78.75
2018-06-30T09:02:01.073Z,78.75
2018-06-30T09:03:01.144Z,78.75
2018-06-30T09:04:01.034Z,78.75
2018-06-30T09:05:01.035Z,78.75
2018-06-30T09:06:00.934Z,78.75
2018-06-30T09:07:00.906Z,78.75
2018-06-30T09:08:08.786Z,78.75
2018-06-30T09:09:01.229Z,84.38
2018-06-30T09:10:01.136Z,84.38
2018-06-30T09:11:00.867Z,84.38
2018-06-30T09:12:00.997Z,84.38
2018-06-30T09:13:00.911Z,84.38
2018-06-30T09:14:00.843Z,84.38
2018-06-30T09:15:00.815Z,84.38
2018-06-30T09:16:00.820Z,84.38
2018-06-30T09:17:00.801Z,84.38
2018-06-30T09:18:00.855Z,84.38
2018-06-30T09:19:00.771Z,84.38
2018-06-30T09:20:00.760Z,84.38
2018-06-30T09:21:00.750Z,84.38
2018-06-30T09:22:00.751Z,90.00
2018-06-30T09:23:01.170Z,90.00
2018-06-30T09:24:00.765Z,90.00
2018-06-30T09:25:00.732Z,90.00
2018-06-30T09:26:00.996Z,90.00
2018-06-30T11:33:10.425Z,185.62
2018-06-30T11:34:08.164Z,185.62
2018-06-30T11:35:05.522Z,196.88
2018-06-30T11:36:03.863Z,202.50
2018-06-30T11:37:03.860Z,196.88
2018-06-30T11:39:34.172Z,129.38
2018-06-30T11:40:34.265Z,135.00
2018-06-30T11:41:34.175Z,180.00
2018-06-30T11:44:49.153Z,163.12
2018-06-30T11:47:01.736Z,196.88
2018-06-30T11:48:01.762Z,191.25
2018-06-30T11:49:01.801Z,168.75
2018-06-30T11:50:01.621Z,185.62
2018-06-30T11:51:01.615Z,135.00
2018-06-30T11:52:01.664Z,135.00
2018-06-30T11:53:01.591Z,185.62
2018-06-30T11:54:01.635Z,157.50
2018-06-30T12:03:58.353Z,191.25
2018-06-30T12:04:58.481Z,230.62
2018-06-30T12:05:58.255Z,219.38
2018-06-30T12:06:58.192Z,208.12
2018-06-30T12:07:58.149Z,208.12
2018-06-30T12:08:58.143Z,208.12
2018-06-30T12:13:25.651Z,196.88
2018-06-30T12:18:54.524Z,202.50
2018-06-30T12:19:13.977Z,208.12
2018-06-30T12:20:13.797Z,208.12
2018-06-30T12:21:13.799Z,208.12
2018-06-30T12:22:13.777Z,213.75
2018-06-30T12:23:13.758Z,213.75
2018-06-30T12:24:13.855Z,219.38
2018-06-30T12:25:13.744Z,213.75
2018-06-30T12:26:13.740Z,213.75
2018-06-30T12:27:15.415Z,174.38
2018-06-30T12:28:13.792Z,157.50
2018-06-30T12:29:13.942Z,163.12
2018-06-30T12:30:13.826Z,174.38
2018-06-30T12:31:13.763Z,174.38
2018-06-30T12:32:13.682Z,185.62
2018-06-30T12:33:13.664Z,191.25
2018-06-30T12:34:13.656Z,196.88
2018-06-30T12:35:15.445Z,225.00
2018-06-30T12:36:13.637Z,236.25
2018-06-30T12:37:14.008Z,236.25
2018-06-30T12:38:14.416Z,236.25
2018-06-30T12:39:13.669Z,236.25
2018-06-30T12:40:13.808Z,168.75
2018-06-30T12:41:13.701Z,185.62
2018-06-30T12:42:13.569Z,253.12
2018-06-30T12:43:13.565Z,258.75
2018-06-30T12:44:14.691Z,264.38
2018-06-30T12:45:14.442Z,258.75
2018-06-30T12:46:13.528Z,253.12
2018-06-30T12:47:13.515Z,253.12
2018-06-30T12:48:13.507Z,264.38
2018-06-30T12:49:13.489Z,264.38
2018-06-30T12:50:13.551Z,264.38
2018-06-30T12:51:13.473Z,270.00
2018-06-30T12:52:13.467Z,275.62
2018-06-30T12:53:14.016Z,281.25
2018-06-30T12:54:13.544Z,286.88
2018-06-30T12:56:32.445Z,292.50
2018-06-30T12:57:31.753Z,298.12
2018-06-30T12:59:52.245Z,303.75
2018-06-30T13:00:52.056Z,309.38
2018-06-30T13:01:52.203Z,309.38
2018-06-30T13:02:51.826Z,320.62
2018-06-30T13:03:51.929Z,326.25
2018-06-30T13:04:54.865Z,331.88
2018-06-30T13:05:51.796Z,360.00
2018-06-30T13:06:51.780Z,270.00
2018-06-30T13:07:51.779Z,410.62
2018-06-30T13:08:51.762Z,421.88
2018-06-30T13:09:51.826Z,410.62
2018-06-30T13:10:51.768Z,421.88
2018-06-30T13:11:51.881Z,416.25
2018-06-30T13:16:02.186Z,438.75
2018-06-30T13:17:13.818Z,450.00
2018-06-30T13:18:02.776Z,466.88
2018-06-30T13:19:02.104Z,478.12
2018-06-30T13:21:12.441Z,545.62
2018-06-30T13:22:12.405Z,568.12
2018-06-30T13:23:25.131Z,618.75
2018-06-30T13:24:12.354Z,708.75
2018-06-30T13:25:12.371Z,1524.38
2018-06-30T13:26:12.354Z,3003.75
2018-06-30T13:27:12.285Z,3425.62
2018-06-30T13:28:23.029Z,3436.88
2018-06-30T13:29:12.344Z,3431.25
2018-06-30T13:30:12.361Z,3538.12
2018-06-30T13:31:12.257Z,3611.25
2018-06-30T13:32:12.335Z,3245.62
2018-06-30T13:33:12.164Z,2795.62
2018-06-30T13:34:12.151Z,2818.12
2018-06-30T13:35:12.247Z,2947.50
2018-06-30T13:36:12.141Z,3060.00
2018-06-30T13:38:31.595Z,3526.88
2018-06-30T13:39:31.776Z,3448.12
2018-06-30T13:40:33.138Z,3330.00
2018-06-30T13:41:31.420Z,2896.88
2018-06-30T13:42:35.046Z,1456.88
2018-06-30T13:43:33.160Z,298.12
2018-06-30T13:44:31.395Z,241.88
2018-06-30T13:45:31.494Z,219.38
2018-06-30T13:46:31.365Z,208.12
2018-06-30T13:47:33.062Z,196.88
2018-06-30T13:49:51.918Z,185.62
2018-06-30T13:56:19.319Z,331.88
2018-06-30T13:57:19.373Z,455.62
2018-06-30T14:00:15.257Z,3256.88
2018-06-30T14:01:16.858Z,3026.25
2018-06-30T14:02:15.154Z,3003.75
2018-06-30T14:03:15.231Z,3217.50
2018-06-30T14:04:15.200Z,3200.62
2018-06-30T14:05:15.111Z,2964.38
2018-06-30T14:06:15.024Z,2868.75
2018-06-30T14:07:17.871Z,2953.12
2018-06-30T14:08:15.101Z,3155.62
2018-06-30T14:09:34.355Z,3116.25
2018-06-30T14:10:15.127Z,3105.00
2018-06-30T14:11:15.251Z,3138.75
2018-06-30T14:12:15.083Z,3060.00
2018-06-30T14:13:15.011Z,3026.25
2018-06-30T14:14:16.980Z,3088.12
2018-06-30T14:15:16.772Z,2840.62
2018-06-30T14:16:32.338Z,2671.88
2018-06-30T14:32:31.861Z,3526.88
2018-06-30T14:33:33.829Z,3420.00
2018-06-30T14:34:31.869Z,2784.38
2018-06-30T14:37:25.588Z,1254.38
2018-06-30T14:38:23.099Z,1226.25
2018-06-30T14:39:23.041Z,1203.75
2018-06-30T14:40:23.147Z,1192.50
2018-06-30T14:41:22.968Z,1186.88
2018-06-30T14:42:22.930Z,1198.12
2018-06-30T14:43:23.017Z,1181.25
2018-06-30T14:44:22.937Z,1175.62
2018-06-30T14:45:22.904Z,1186.88
2018-06-30T14:46:22.987Z,1198.12
2018-06-30T14:49:47.359Z,1243.12
2018-06-30T14:50:48.967Z,1260.00
2018-06-30T14:51:47.307Z,1260.00
2018-06-30T14:52:47.176Z,1282.50
2018-06-30T14:53:47.161Z,1293.75
2018-06-30T14:54:47.160Z,1265.62
2018-06-30T14:55:47.253Z,742.50
2018-06-30T14:56:47.599Z,354.38
2018-06-30T14:57:48.717Z,410.62
2018-06-30T14:58:47.837Z,1063.12
2018-06-30T14:59:47.125Z,1406.25
2018-06-30T15:00:47.172Z,466.88
2018-06-30T15:01:47.203Z,303.75
2018-06-30T15:02:47.098Z,281.25
2018-06-30T15:05:49.814Z,219.38
2018-06-30T15:06:40.323Z,219.38
2018-06-30T15:07:42.123Z,219.38
2018-06-30T15:08:40.362Z,225.00
2018-06-30T15:11:40.965Z,635.62
2018-06-30T15:14:47.585Z,1535.62
2018-06-30T15:16:59.005Z,1524.38
2018-06-30T15:17:58.940Z,1507.50
2018-06-30T15:20:24.134Z,1485.00
2018-06-30T15:22:34.524Z,1507.50
2018-06-30T15:23:34.481Z,1496.25
2018-06-30T15:24:34.500Z,1496.25
2018-06-30T15:25:34.436Z,1507.50
2018-06-30T15:29:19.821Z,1501.88
2018-06-30T15:30:19.783Z,1507.50
2018-06-30T15:31:19.790Z,1507.50
2018-06-30T15:35:28.877Z,1518.75
2018-06-30T15:36:28.670Z,1524.38
2018-06-30T15:37:28.709Z,1524.38
2018-06-30T15:38:28.679Z,1530.00
2018-06-30T15:39:28.573Z,1535.62
2018-06-30T15:40:28.616Z,1535.62
2018-06-30T15:41:28.618Z,1530.00
2018-06-30T15:42:28.532Z,1530.00
2018-06-30T15:43:28.511Z,1524.38
2018-06-30T15:44:28.501Z,1501.88
2018-06-30T15:45:28.545Z,1501.88
2018-06-30T15:46:28.549Z,1496.25
2018-06-30T15:47:28.770Z,1485.00
2018-06-30T15:48:28.608Z,1473.75
2018-06-30T15:49:28.781Z,1462.50
2018-06-30T15:50:28.573Z,1462.50
2018-06-30T15:51:28.548Z,1445.62
2018-06-30T15:52:28.437Z,1389.38
2018-06-30T15:53:28.439Z,1333.12
2018-06-30T15:54:28.416Z,1203.75
2018-06-30T15:55:33.432Z,545.62
2018-06-30T16:01:55.379Z,1395.00
2018-06-30T16:02:51.737Z,1395.00
2018-06-30T16:03:52.012Z,1372.50
2018-06-30T16:04:49.268Z,1389.38
2018-06-30T16:05:49.839Z,1361.25
2018-06-30T16:06:52.051Z,1395.00
2018-06-30T16:07:49.001Z,1406.25
2018-06-30T16:08:49.018Z,1411.88
2018-06-30T16:09:49.095Z,331.88
2018-06-30T16:10:48.969Z,450.00
2018-06-30T16:11:49.039Z,1451.25
2018-06-30T16:12:48.953Z,343.12
2018-06-30T16:13:48.929Z,1710.00
2018-06-30T16:14:48.982Z,3273.75
2018-06-30T16:15:49.900Z,3037.50
2018-06-30T16:16:49.026Z,2683.12
2018-06-30T16:17:50.990Z,2373.75
2018-06-30T16:29:53.687Z,2064.38
2018-06-30T16:30:52.149Z,1867.50
2018-06-30T16:31:53.469Z,2171.25
2018-06-30T16:34:32.702Z,770.62